N724PT KMEM-KMEM
Flight info
| Callsign | N724PT |
|---|---|
| Flight time | 0h 3m |
| Altitude | VFR/020 |
| Route | VFR PATTERN |
| Aircraft | C172/L-DOV/C |
Departure
| Time | 2026-05-05 00:54 |
|---|---|
| Airport | Memphis International Airport (KMEM) |
Arrival
| Time | 2026-05-05 00:58 |
|---|---|
| Airport | Memphis International Airport (KMEM) |
| Time | Latitude | Longitude | Altitude | Speed | Heading |
|---|---|---|---|---|---|
| 2026-05-05 00:43 | 35.05463 | -89.98221 | 287 ft | 0 kts | 271° |
| 2026-05-05 00:45 | 35.05464 | -89.98240 | 287 ft | 6 kts | 287° |
| 2026-05-05 00:45 | 35.05482 | -89.98266 | 286 ft | 0 kts | 322° |
| 2026-05-05 00:45 | 35.05498 | -89.98319 | 284 ft | 9 kts | 278° |
| 2026-05-05 00:46 | 35.05540 | -89.98372 | 283 ft | 9 kts | 326° |
| 2026-05-05 00:46 | 35.05570 | -89.98427 | 283 ft | 6 kts | 270° |
| 2026-05-05 00:46 | 35.05570 | -89.98436 | 282 ft | 0 kts | 273° |
| 2026-05-05 00:48 | 35.05571 | -89.98447 | 282 ft | 4 kts | 271° |
| 2026-05-05 00:48 | 35.05552 | -89.98510 | 280 ft | 11 kts | 196° |
| 2026-05-05 00:48 | 35.05488 | -89.98512 | 280 ft | 8 kts | 181° |
| 2026-05-05 00:49 | 35.05418 | -89.98511 | 280 ft | 12 kts | 180° |
| 2026-05-05 00:49 | 35.05331 | -89.98512 | 283 ft | 13 kts | 179° |
| 2026-05-05 00:49 | 35.05217 | -89.98514 | 283 ft | 16 kts | 186° |
| 2026-05-05 00:49 | 35.05129 | -89.98523 | 289 ft | 15 kts | 192° |
| 2026-05-05 00:50 | 35.05004 | -89.98587 | 293 ft | 22 kts | 208° |
| 2026-05-05 00:50 | 35.04936 | -89.98633 | 295 ft | 0 kts | 223° |
| 2026-05-05 00:52 | 35.04925 | -89.98650 | 293 ft | 8 kts | 236° |
| 2026-05-05 00:52 | 35.04890 | -89.98738 | 294 ft | 12 kts | 204° |
| 2026-05-05 00:52 | 35.04846 | -89.98742 | 293 ft | 0 kts | 178° |
| 2026-05-05 00:53 | 35.04823 | -89.98742 | 293 ft | 19 kts | 181° |
| 2026-05-05 00:53 | 35.04521 | -89.98735 | 292 ft | 65 kts | 178° |
| 2026-05-05 00:53 | 35.04011 | -89.98721 | 425 ft | 77 kts | 183° |
| 2026-05-05 00:54 | 35.03441 | -89.98701 | 592 ft | 84 kts | 178° |
| 2026-05-05 00:54 | 35.02832 | -89.98690 | 788 ft | 91 kts | 186° |
| 2026-05-05 00:54 | 35.02520 | -89.99232 | 1050 ft | 94 kts | 270° |
| 2026-05-05 00:54 | 35.02626 | -90.00014 | 1177 ft | 92 kts | 274° |
| 2026-05-05 00:55 | 35.03075 | -90.00581 | 1180 ft | 122 kts | 358° |
| 2026-05-05 00:55 | 35.03928 | -90.00508 | 1329 ft | 127 kts | 3° |
| 2026-05-05 00:55 | 35.04824 | -90.00351 | 1416 ft | 134 kts | 9° |
| 2026-05-05 00:55 | 35.05743 | -90.00208 | 1520 ft | 134 kts | 358° |
| 2026-05-05 00:56 | 35.06686 | -90.00194 | 1617 ft | 136 kts | 358° |
| 2026-05-05 00:56 | 35.07526 | -89.99772 | 1539 ft | 135 kts | 66° |
| 2026-05-05 00:56 | 35.07517 | -89.98839 | 1401 ft | 101 kts | 154° |
| 2026-05-05 00:56 | 35.06878 | -89.98773 | 1056 ft | 94 kts | 193° |
| 2026-05-05 00:57 | 35.06242 | -89.98802 | 792 ft | 89 kts | 181° |
| 2026-05-05 00:57 | 35.05724 | -89.98755 | 631 ft | 68 kts | 191° |
| 2026-05-05 00:57 | 35.05278 | -89.98750 | 458 ft | 60 kts | 185° |
| 2026-05-05 00:57 | 35.04849 | -89.98740 | 335 ft | 61 kts | 184° |
| 2026-05-05 00:58 | 35.04463 | -89.98738 | 291 ft | 48 kts | 184° |
| 2026-05-05 00:58 | 35.04055 | -89.98734 | 306 ft | 71 kts | 181° |
| 2026-05-05 00:58 | 35.03534 | -89.98689 | 442 ft | 78 kts | 181° |
| 2026-05-05 00:58 | 35.02987 | -89.98686 | 677 ft | 81 kts | 185° |
| 2026-05-05 00:59 | 35.02565 | -89.99014 | 1002 ft | 79 kts | 249° |
| 2026-05-05 00:59 | 35.02646 | -89.99737 | 1078 ft | 91 kts | 278° |
| 2026-05-05 00:59 | 35.02797 | -90.00502 | 1129 ft | 108 kts | 306° |
| 2026-05-05 00:59 | 35.03535 | -90.00665 | 1310 ft | 119 kts | 0° |
| 2026-05-05 01:00 | 35.04407 | -90.00593 | 1366 ft | 131 kts | 5° |
| 2026-05-05 01:00 | 35.05331 | -90.00454 | 1428 ft | 135 kts | 2° |
| 2026-05-05 01:00 | 35.06280 | -90.00419 | 1488 ft | 140 kts | 359° |
| 2026-05-05 01:00 | 35.07162 | -89.99980 | 1518 ft | 136 kts | 56° |
| 2026-05-05 01:01 | 35.07291 | -89.99069 | 1297 ft | 105 kts | 141° |
| 2026-05-05 01:01 | 35.06721 | -89.98779 | 1125 ft | 80 kts | 179° |
| 2026-05-05 01:01 | 35.06220 | -89.98776 | 893 ft | 68 kts | 188° |
| 2026-05-05 01:01 | 35.05772 | -89.98758 | 662 ft | 62 kts | 182° |
| 2026-05-05 01:02 | 35.05352 | -89.98746 | 429 ft | 57 kts | 186° |
| 2026-05-05 01:02 | 35.05003 | -89.98749 | 301 ft | 48 kts | 180° |
| 2026-05-05 01:02 | 35.04675 | -89.98745 | 328 ft | 50 kts | 179° |
| 2026-05-05 01:02 | 35.04299 | -89.98719 | 423 ft | 58 kts | 184° |
| 2026-05-05 01:03 | 35.03881 | -89.98723 | 550 ft | 58 kts | 185° |
| 2026-05-05 01:03 | 35.03441 | -89.98720 | 655 ft | 68 kts | 179° |
| 2026-05-05 01:03 | 35.02938 | -89.98669 | 837 ft | 78 kts | 180° |
| 2026-05-05 01:03 | 35.02419 | -89.98645 | 1085 ft | 63 kts | 182° |
| 2026-05-05 01:04 | 35.01919 | -89.98603 | 1112 ft | 76 kts | 179° |
| 2026-05-05 01:04 | 35.00863 | -89.98478 | 1506 ft | 75 kts | 184° |
| 2026-05-05 01:04 | 35.00356 | -89.98417 | 1725 ft | 73 kts | 182° |
| 2026-05-05 01:05 | 34.99805 | -89.98348 | 1794 ft | 82 kts | 184° |
| 2026-05-05 01:05 | 34.99212 | -89.98292 | 1865 ft | 88 kts | 182° |
| 2026-05-05 01:05 | 34.98587 | -89.98238 | 1866 ft | 95 kts | 193° |
| 2026-05-05 01:05 | 34.98162 | -89.98819 | 1811 ft | 115 kts | 261° |
| 2026-05-05 01:06 | 34.98423 | -89.99748 | 1833 ft | 116 kts | 287° |
| 2026-05-05 01:06 | 34.98871 | -90.00542 | 1820 ft | 127 kts | 319° |
| 2026-05-05 01:06 | 34.99761 | -90.00721 | 1829 ft | 129 kts | 355° |
| 2026-05-05 01:06 | 35.00648 | -90.00706 | 1870 ft | 120 kts | 356° |
| 2026-05-05 01:07 | 35.01468 | -90.00616 | 1862 ft | 121 kts | 1° |
| 2026-05-05 01:07 | 35.02324 | -90.00566 | 1861 ft | 124 kts | 360° |
| 2026-05-05 01:07 | 35.03184 | -90.00515 | 1890 ft | 124 kts | 1° |
| 2026-05-05 01:07 | 35.04096 | -90.00428 | 1792 ft | 135 kts | 1° |
| 2026-05-05 01:08 | 35.05031 | -90.00311 | 1688 ft | 137 kts | 6° |
| 2026-05-05 01:08 | 35.05882 | -90.00190 | 1655 ft | 115 kts | 4° |
| 2026-05-05 01:08 | 35.06623 | -89.99972 | 1520 ft | 109 kts | 30° |
| 2026-05-05 01:08 | 35.07057 | -89.99372 | 1338 ft | 85 kts | 102° |
| 2026-05-05 01:09 | 35.06801 | -89.98858 | 1053 ft | 75 kts | 165° |
| 2026-05-05 01:09 | 35.06293 | -89.98781 | 807 ft | 73 kts | 179° |
| 2026-05-05 01:09 | 35.05769 | -89.98763 | 585 ft | 76 kts | 184° |
| 2026-05-05 01:09 | 35.05317 | -89.98760 | 409 ft | 54 kts | 184° |
| 2026-05-05 01:10 | 35.04967 | -89.98745 | 298 ft | 49 kts | 181° |
| 2026-05-05 01:10 | 35.04641 | -89.98745 | 292 ft | 43 kts | 185° |
| 2026-05-05 01:10 | 35.04265 | -89.98735 | 320 ft | 58 kts | 178° |
| 2026-05-05 01:10 | 35.03837 | -89.98702 | 393 ft | 69 kts | 180° |
| 2026-05-05 01:11 | 35.03337 | -89.98672 | 543 ft | 78 kts | 183° |
| 2026-05-05 01:11 | 35.02769 | -89.98717 | 728 ft | 87 kts | 201° |
| 2026-05-05 01:11 | 35.02197 | -89.98826 | 991 ft | 82 kts | 176° |
| 2026-05-05 01:11 | 35.01661 | -89.98670 | 1114 ft | 78 kts | 168° |
| 2026-05-05 01:12 | 35.01171 | -89.98478 | 1238 ft | 72 kts | 193° |
| 2026-05-05 01:12 | 35.00955 | -89.98982 | 1285 ft | 90 kts | 275° |
| 2026-05-05 01:12 | 35.01094 | -89.99736 | 1195 ft | 103 kts | 278° |
| 2026-05-05 01:12 | 35.01559 | -90.00351 | 1191 ft | 112 kts | 353° |
| 2026-05-05 01:13 | 35.02334 | -90.00291 | 1232 ft | 114 kts | 5° |
| 2026-05-05 01:13 | 35.03111 | -90.00145 | 1293 ft | 112 kts | 3° |
| 2026-05-05 01:13 | 35.03629 | -90.00078 | 1311 ft | 114 kts | 3° |
| 2026-05-05 01:13 | 35.04431 | -89.99938 | 1377 ft | 117 kts | 3° |
| 2026-05-05 01:14 | 35.05266 | -89.99869 | 1394 ft | 121 kts | 358° |
| 2026-05-05 01:14 | 35.06135 | -89.99818 | 1292 ft | 129 kts | 1° |
| 2026-05-05 01:14 | 35.06905 | -89.99466 | 1167 ft | 109 kts | 63° |
| 2026-05-05 01:14 | 35.06816 | -89.98828 | 1051 ft | 78 kts | 166° |
| 2026-05-05 01:15 | 35.06285 | -89.98763 | 746 ft | 70 kts | 184° |
| 2026-05-05 01:15 | 35.05812 | -89.98781 | 582 ft | 67 kts | 184° |
| 2026-05-05 01:15 | 35.05368 | -89.98758 | 402 ft | 60 kts | 184° |
| 2026-05-05 01:15 | 35.04983 | -89.98747 | 317 ft | 55 kts | 181° |
| 2026-05-05 01:16 | 35.04617 | -89.98748 | 292 ft | 47 kts | 186° |
| 2026-05-05 01:16 | 35.04227 | -89.98710 | 335 ft | 65 kts | 180° |
| 2026-05-05 01:16 | 35.03752 | -89.98703 | 474 ft | 73 kts | 177° |
| 2026-05-05 01:16 | 35.03337 | -89.98971 | 626 ft | 82 kts | 238° |
| 2026-05-05 01:17 | 35.03392 | -89.99683 | 849 ft | 85 kts | 276° |
| 2026-05-05 01:17 | 35.03543 | -90.00375 | 1029 ft | 85 kts | 280° |
| 2026-05-05 01:17 | 35.04044 | -90.00818 | 1164 ft | 103 kts | 359° |
| 2026-05-05 01:17 | 35.04824 | -90.00720 | 1244 ft | 122 kts | 6° |
| 2026-05-05 01:18 | 35.05693 | -90.00602 | 1373 ft | 128 kts | 5° |
| 2026-05-05 01:18 | 35.06579 | -90.00495 | 1445 ft | 131 kts | 5° |
| 2026-05-05 01:18 | 35.07485 | -90.00365 | 1456 ft | 129 kts | 7° |
| 2026-05-05 01:18 | 35.08102 | -89.99753 | 1339 ft | 110 kts | 92° |
| 2026-05-05 01:19 | 35.07819 | -89.99105 | 1177 ft | 83 kts | 159° |
| 2026-05-05 01:19 | 35.07304 | -89.98876 | 985 ft | 75 kts | 171° |
| 2026-05-05 01:19 | 35.06796 | -89.98779 | 766 ft | 74 kts | 183° |
| 2026-05-05 01:19 | 35.06332 | -89.98787 | 635 ft | 54 kts | 181° |
| 2026-05-05 01:20 | 35.05975 | -89.98764 | 518 ft | 53 kts | 181° |
| 2026-05-05 01:20 | 35.05611 | -89.98756 | 441 ft | 51 kts | 183° |
| 2026-05-05 01:20 | 35.05238 | -89.98746 | 374 ft | 58 kts | 179° |
| 2026-05-05 01:20 | 35.04821 | -89.98741 | 327 ft | 60 kts | 181° |
| 2026-05-05 01:21 | 35.04432 | -89.98736 | 291 ft | 47 kts | 180° |
| 2026-05-05 01:21 | 35.04091 | -89.98736 | 297 ft | 60 kts | 180° |
| 2026-05-05 01:21 | 35.03680 | -89.98696 | 442 ft | 62 kts | 179° |
| 2026-05-05 01:21 | 35.03268 | -89.98845 | 622 ft | 66 kts | 233° |
| 2026-05-05 01:22 | 35.03311 | -89.99500 | 786 ft | 84 kts | 275° |
| 2026-05-05 01:22 | 35.03362 | -90.00240 | 947 ft | 93 kts | 267° |
| 2026-05-05 01:22 | 35.03425 | -90.01019 | 1127 ft | 90 kts | 270° |
| 2026-05-05 01:22 | 35.03567 | -90.01843 | 1123 ft | 103 kts | 274° |
| 2026-05-05 01:23 | 35.03664 | -90.02669 | 1358 ft | 95 kts | 267° |
| 2026-05-05 01:23 | 35.04157 | -90.03273 | 1430 ft | 116 kts | 353° |
| 2026-05-05 01:23 | 35.04950 | -90.03254 | 1457 ft | 108 kts | 1° |
| 2026-05-05 01:23 | 35.05670 | -90.03155 | 1500 ft | 106 kts | 3° |
| 2026-05-05 01:24 | 35.06400 | -90.03081 | 1477 ft | 109 kts | 360° |
| 2026-05-05 01:24 | 35.07160 | -90.02999 | 1469 ft | 112 kts | 6° |
| 2026-05-05 01:24 | 35.07942 | -90.02930 | 1434 ft | 115 kts | 359° |
| 2026-05-05 01:24 | 35.08732 | -90.02809 | 1378 ft | 123 kts | 33° |
| 2026-05-05 01:25 | 35.09108 | -90.01977 | 1317 ft | 111 kts | 95° |
| 2026-05-05 01:25 | 35.09185 | -90.01032 | 1291 ft | 112 kts | 95° |
| 2026-05-05 01:25 | 35.09152 | -90.00179 | 1271 ft | 89 kts | 127° |
| 2026-05-05 01:25 | 35.08843 | -89.99506 | 1094 ft | 91 kts | 139° |
| 2026-05-05 01:26 | 35.08343 | -89.99143 | 988 ft | 82 kts | 167° |
| 2026-05-05 01:26 | 35.07839 | -89.98980 | 842 ft | 70 kts | 172° |
| 2026-05-05 01:26 | 35.07379 | -89.98835 | 651 ft | 66 kts | 178° |
| 2026-05-05 01:26 | 35.06942 | -89.98755 | 540 ft | 59 kts | 186° |
| 2026-05-05 01:27 | 35.06518 | -89.98779 | 485 ft | 63 kts | 184° |
| 2026-05-05 01:27 | 35.06129 | -89.98764 | 461 ft | 52 kts | 181° |
| 2026-05-05 01:27 | 35.05755 | -89.98751 | 428 ft | 58 kts | 182° |
| 2026-05-05 01:27 | 35.05339 | -89.98761 | 396 ft | 60 kts | 184° |
| 2026-05-05 01:28 | 35.04925 | -89.98744 | 328 ft | 57 kts | 181° |
| 2026-05-05 01:28 | 35.04575 | -89.98743 | 292 ft | 39 kts | 180° |
| 2026-05-05 01:28 | 35.04344 | -89.98739 | 289 ft | 32 kts | 176° |
| 2026-05-05 01:28 | 35.04178 | -89.98663 | 293 ft | 20 kts | 89° |
| 2026-05-05 01:29 | 35.04243 | -89.98598 | 291 ft | 4 kts | 356° |
| 2026-05-05 01:29 | 35.04245 | -89.98598 | 291 ft | 0 kts | 357° |
| 2026-05-05 01:29 | 35.04279 | -89.98598 | 290 ft | 14 kts | 5° |
| 2026-05-05 01:29 | 35.04431 | -89.98599 | 291 ft | 29 kts | 359° |
| 2026-05-05 01:30 | 35.04655 | -89.98604 | 295 ft | 31 kts | 359° |
| 2026-05-05 01:30 | 35.04858 | -89.98609 | 295 ft | 27 kts | 1° |
| 2026-05-05 01:30 | 35.05029 | -89.98572 | 292 ft | 24 kts | 32° |
| 2026-05-05 01:30 | 35.05179 | -89.98515 | 289 ft | 22 kts | 2° |
| 2026-05-05 01:31 | 35.05341 | -89.98513 | 283 ft | 21 kts | 7° |
| 2026-05-05 01:31 | 35.05484 | -89.98510 | 280 ft | 20 kts | 358° |
| 2026-05-05 01:31 | 35.05571 | -89.98447 | 282 ft | 15 kts | 101° |
| 2026-05-05 01:31 | 35.05527 | -89.98365 | 283 ft | 10 kts | 144° |
| 2026-05-05 01:32 | 35.05488 | -89.98312 | 284 ft | 8 kts | 99° |
| 2026-05-05 01:32 | 35.05498 | -89.98257 | 287 ft | 5 kts | 84° |
| 2026-05-05 01:32 | 35.05494 | -89.98224 | 288 ft | 5 kts | 121° |